createdAt,value
2019-03-30T00:00:29.076Z,51902.56
2019-03-30T00:03:38.418Z,51915.37
2019-03-30T00:06:58.247Z,51873.98
2019-03-30T00:10:08.068Z,51960.71
2019-03-30T00:13:17.487Z,51910.45
2019-03-30T00:16:26.960Z,51910.45
2019-03-30T00:19:36.367Z,51906.50
2019-03-30T00:22:56.016Z,51936.07
2019-03-30T00:26:05.663Z,51915.37
2019-03-30T00:29:15.078Z,51930.16
2019-03-30T00:32:24.525Z,51897.63
2019-03-30T00:35:34.024Z,51912.42
2019-03-30T00:38:53.760Z,51894.68
2019-03-30T00:42:04.318Z,51914.39
2019-03-30T00:45:13.681Z,51933.11
2019-03-30T00:48:23.141Z,51922.27
2019-03-30T00:51:42.870Z,51893.69
2019-03-30T00:54:52.357Z,51956.77
2019-03-30T00:58:01.906Z,51909.46
2019-03-30T01:01:11.662Z,51916.36
2019-03-30T01:04:21.008Z,51922.27
2019-03-30T01:07:30.456Z,51918.33
2019-03-30T01:10:39.899Z,51929.17
2019-03-30T01:13:59.817Z,51914.39
2019-03-30T01:17:09.665Z,51933.11
2019-03-30T01:20:18.970Z,51942.97
2019-03-30T01:23:28.406Z,51955.79
2019-03-30T01:26:48.691Z,51880.87
2019-03-30T01:29:59.686Z,51918.33
2019-03-30T01:33:09.156Z,51910.45
2019-03-30T01:36:18.992Z,51881.86
2019-03-30T01:39:28.423Z,51894.68
2019-03-30T01:42:48.345Z,51912.42
2019-03-30T01:45:57.875Z,51919.32
2019-03-30T01:49:07.212Z,51933.11
2019-03-30T01:52:16.741Z,51918.33
2019-03-30T01:55:26.071Z,51934.10
2019-03-30T01:58:45.794Z,51923.26
2019-03-30T02:01:56.523Z,51930.16
2019-03-30T02:05:06.276Z,51933.11
2019-03-30T02:08:25.949Z,51904.53
2019-03-30T02:11:35.368Z,51926.21
2019-03-30T02:14:44.811Z,51912.42
2019-03-30T02:18:04.584Z,51914.39
2019-03-30T02:21:14.201Z,51933.11
2019-03-30T02:24:23.548Z,51926.21
2019-03-30T02:27:33.417Z,51922.27
2019-03-30T02:30:42.769Z,51914.39
2019-03-30T02:33:52.508Z,51921.29
2019-03-30T02:37:01.826Z,51916.36
2019-03-30T02:40:21.475Z,51929.17
2019-03-30T02:43:30.953Z,51913.40
2019-03-30T02:46:51.228Z,51894.68
2019-03-30T02:50:00.686Z,51925.23
2019-03-30T02:53:10.232Z,51918.33
2019-03-30T02:56:19.775Z,51968.60
2019-03-30T02:59:29.216Z,51913.40
2019-03-30T03:02:48.985Z,51888.76
2019-03-30T03:05:58.849Z,51956.77
2019-03-30T03:09:10.574Z,51979.44
2019-03-30T03:12:20.000Z,51912.42
2019-03-30T03:15:29.657Z,51935.09
2019-03-30T03:18:50.051Z,51888.76
2019-03-30T03:21:59.390Z,51930.16
2019-03-30T03:25:09.049Z,51931.14
2019-03-30T03:28:18.604Z,51925.23
2019-03-30T03:31:28.063Z,51936.07
2019-03-30T03:34:47.845Z,51891.72
2019-03-30T03:37:57.365Z,51922.27
2019-03-30T03:41:06.736Z,51940.02
2019-03-30T03:44:16.954Z,51938.04
2019-03-30T03:47:36.796Z,51934.10
2019-03-30T03:50:49.159Z,51922.27
2019-03-30T03:53:58.803Z,51953.81
2019-03-30T03:57:20.996Z,51872.00
2019-03-30T04:00:30.715Z,51932.13
2019-03-30T04:03:41.601Z,51928.19
2019-03-30T04:06:53.344Z,51931.14
2019-03-30T04:10:06.542Z,51944.94
2019-03-30T04:13:17.276Z,51920.30
2019-03-30T04:16:27.997Z,51938.04
2019-03-30T04:19:37.445Z,51901.57
2019-03-30T04:22:46.882Z,51963.67
2019-03-30T04:25:56.325Z,51929.17
2019-03-30T04:29:06.773Z,51883.83
2019-03-30T04:32:26.730Z,51908.47
2019-03-30T04:35:36.189Z,51961.70
2019-03-30T04:38:45.573Z,51955.79
2019-03-30T04:42:05.467Z,51916.36
2019-03-30T04:45:15.036Z,51935.09
2019-03-30T04:48:24.475Z,51950.86
2019-03-30T04:51:39.816Z,51955.79
2019-03-30T04:54:49.317Z,51945.93
2019-03-30T04:58:01.411Z,51951.84
2019-03-30T05:01:10.969Z,51938.04
2019-03-30T05:04:20.421Z,51969.58
2019-03-30T05:07:30.838Z,51943.96
2019-03-30T05:10:40.173Z,51935.09
2019-03-30T05:14:00.598Z,51908.47
2019-03-30T05:17:10.244Z,51919.32
2019-03-30T05:20:19.703Z,51968.60
2019-03-30T05:23:29.202Z,51909.46
2019-03-30T05:26:48.884Z,51895.66
2019-03-30T05:29:58.537Z,51975.50
2019-03-30T05:33:18.987Z,51934.10
2019-03-30T05:36:28.315Z,51947.90
2019-03-30T05:39:37.675Z,51957.76
2019-03-30T05:42:47.340Z,51954.80
2019-03-30T05:45:56.761Z,51973.53
2019-03-30T05:49:06.210Z,51951.84
2019-03-30T05:52:25.932Z,51911.43
2019-03-30T05:55:37.126Z,51959.73
2019-03-30T05:58:46.610Z,51944.94
2019-03-30T06:01:55.956Z,51973.53
2019-03-30T06:05:15.768Z,51937.05
2019-03-30T06:08:25.236Z,51934.10
2019-03-30T06:11:34.663Z,51922.27
2019-03-30T06:14:44.196Z,51945.93
2019-03-30T06:17:53.633Z,51938.04
2019-03-30T06:21:13.566Z,51928.19
2019-03-30T06:24:22.947Z,51950.86
2019-03-30T06:27:32.294Z,51936.07
2019-03-30T06:30:52.097Z,51930.16
2019-03-30T06:34:01.459Z,51942.97
2019-03-30T06:37:10.783Z,51942.97
2019-03-30T06:40:30.646Z,51938.04
2019-03-30T06:43:39.999Z,51945.93
2019-03-30T06:46:49.352Z,51926.21
2019-03-30T06:49:58.721Z,51898.62
2019-03-30T06:53:08.089Z,51940.02
2019-03-30T06:56:19.110Z,51928.19
2019-03-30T06:59:38.885Z,51898.62
2019-03-30T07:02:48.612Z,51910.45
2019-03-30T07:05:58.300Z,51925.23
2019-03-30T07:09:08.856Z,51902.56
2019-03-30T07:12:21.369Z,51914.39
2019-03-30T07:15:34.086Z,51952.83
2019-03-30T07:18:45.378Z,51945.93
2019-03-30T07:21:54.732Z,51927.20
2019-03-30T07:25:04.092Z,51923.26
2019-03-30T07:28:13.667Z,51919.32
2019-03-30T07:31:35.916Z,51917.34
2019-03-30T07:34:45.315Z,51897.63
2019-03-30T07:37:54.973Z,51938.04
2019-03-30T07:41:04.333Z,51934.10
2019-03-30T07:44:13.706Z,51907.49
2019-03-30T07:47:23.540Z,51903.54
2019-03-30T07:50:32.909Z,51862.15
2019-03-30T07:53:44.721Z,51902.56
2019-03-30T07:57:04.139Z,51886.79
2019-03-30T08:00:06.367Z,51904.53
2019-03-30T08:03:17.342Z,51919.32
2019-03-30T08:06:26.705Z,51873.98
2019-03-30T08:09:46.456Z,51900.59
2019-03-30T08:12:55.837Z,51906.50
2019-03-30T08:16:05.268Z,51877.92
2019-03-30T08:19:25.060Z,51863.13
2019-03-30T08:22:34.535Z,51896.64
2019-03-30T08:25:45.317Z,51865.11
2019-03-30T08:28:55.673Z,51873.98
2019-03-30T08:32:07.685Z,51860.18
2019-03-30T08:35:17.056Z,51886.79
2019-03-30T08:38:26.415Z,51848.35
2019-03-30T08:41:36.796Z,51867.08
2019-03-30T08:44:46.227Z,51873.98
2019-03-30T08:48:06.727Z,51842.43
2019-03-30T08:51:26.979Z,51841.45
2019-03-30T08:54:36.595Z,51832.58
2019-03-30T08:57:46.387Z,51842.43
2019-03-30T09:00:55.897Z,51864.12
2019-03-30T09:04:05.402Z,51851.31
2019-03-30T09:07:14.880Z,51892.70
2019-03-30T09:10:24.259Z,51918.33
2019-03-30T09:13:44.055Z,51900.59
2019-03-30T09:16:53.525Z,51894.68
2019-03-30T09:20:02.907Z,51929.17
2019-03-30T09:23:22.605Z,51884.82
2019-03-30T09:26:31.946Z,51920.30
2019-03-30T09:29:41.444Z,51906.50
2019-03-30T09:33:01.213Z,51893.69
2019-03-30T09:36:10.701Z,51871.02
2019-03-30T09:39:20.172Z,51844.41
2019-03-30T09:42:29.596Z,51870.03
2019-03-30T09:45:38.974Z,51862.15
2019-03-30T09:48:48.345Z,51867.08
2019-03-30T09:51:57.697Z,51847.36
2019-03-30T09:55:07.904Z,51856.23
2019-03-30T09:58:17.375Z,51864.12
2019-03-30T10:01:26.743Z,51858.21
2019-03-30T10:04:36.318Z,51892.70
2019-03-30T10:07:45.788Z,51875.95
2019-03-30T10:10:55.259Z,51888.76
2019-03-30T10:14:04.726Z,51826.66
2019-03-30T10:17:24.632Z,51866.09
2019-03-30T10:20:34.104Z,51837.51
2019-03-30T10:23:43.463Z,51838.49
2019-03-30T10:27:03.188Z,51845.39
2019-03-30T10:30:12.886Z,51880.87
2019-03-30T10:33:22.249Z,51866.09
2019-03-30T10:36:31.615Z,51847.36
2019-03-30T10:39:40.977Z,51843.42
2019-03-30T10:42:50.324Z,51867.08
2019-03-30T10:45:59.973Z,51813.85
2019-03-30T10:49:09.406Z,51835.54
2019-03-30T10:52:28.992Z,51813.85
2019-03-30T10:55:38.574Z,51796.11
2019-03-30T10:58:47.900Z,51808.92
2019-03-30T11:02:07.538Z,51787.24
2019-03-30T11:05:17.025Z,51820.75
2019-03-30T11:08:26.471Z,51807.94
2019-03-30T11:11:46.110Z,51806.95
2019-03-30T11:14:55.754Z,51791.18
2019-03-30T11:18:05.138Z,51798.08
2019-03-30T11:21:14.125Z,51782.31
2019-03-30T11:24:23.464Z,51818.78
2019-03-30T11:27:32.865Z,51787.24
2019-03-30T11:30:52.685Z,51770.48
2019-03-30T11:34:02.027Z,51825.68
2019-03-30T11:37:11.404Z,51778.37
2019-03-30T11:40:31.198Z,51757.67
2019-03-30T11:43:40.709Z,51770.48
2019-03-30T11:46:50.071Z,51764.57
2019-03-30T11:50:12.872Z,51750.77
2019-03-30T11:53:22.332Z,51757.67
2019-03-30T11:56:31.845Z,51758.66
2019-03-30T11:59:51.438Z,51760.63
2019-03-30T12:03:00.910Z,51737.96
2019-03-30T12:06:10.273Z,51739.93
2019-03-30T12:09:30.041Z,51760.63
2019-03-30T12:12:39.592Z,51721.21
2019-03-30T12:15:49.045Z,51749.79
2019-03-30T12:19:08.595Z,51740.92
2019-03-30T12:22:17.961Z,51747.82
2019-03-30T12:25:35.444Z,51777.38
2019-03-30T12:28:48.817Z,51823.71
2019-03-30T12:31:58.146Z,51807.94
2019-03-30T12:35:07.929Z,51807.94
2019-03-30T12:38:17.273Z,51771.47
2019-03-30T12:41:26.631Z,51738.95
2019-03-30T12:44:36.029Z,51791.18
2019-03-30T12:47:45.386Z,51824.70
2019-03-30T12:50:54.864Z,51813.85
2019-03-30T12:54:14.613Z,51758.66
2019-03-30T12:57:24.050Z,51763.59
2019-03-30T13:00:33.430Z,51755.70
2019-03-30T13:03:53.148Z,51756.69
2019-03-30T13:07:02.595Z,51715.29
2019-03-30T13:10:12.099Z,51744.86
2019-03-30T13:13:31.719Z,51717.26
2019-03-30T13:16:41.164Z,51714.30
2019-03-30T13:19:50.766Z,51709.38
2019-03-30T13:23:00.110Z,51758.66
2019-03-30T13:26:09.758Z,51742.89
2019-03-30T13:29:29.459Z,51737.96
2019-03-30T13:32:38.886Z,51733.03
2019-03-30T13:35:48.371Z,51778.37
2019-03-30T13:39:08.427Z,51787.24
2019-03-30T13:42:17.760Z,51803.01
2019-03-30T13:45:27.217Z,51799.07
2019-03-30T13:48:36.547Z,51818.78
2019-03-30T13:51:45.940Z,51797.10
2019-03-30T13:54:55.447Z,51785.27
2019-03-30T13:58:04.894Z,51807.94
2019-03-30T14:01:14.343Z,51817.80
2019-03-30T14:04:23.761Z,51786.25
2019-03-30T14:07:33.306Z,51803.01
2019-03-30T14:10:53.552Z,51790.20
2019-03-30T14:14:03.051Z,51802.02
2019-03-30T14:17:12.607Z,51827.65
2019-03-30T14:20:22.154Z,51774.43
2019-03-30T14:23:31.475Z,51784.29
2019-03-30T14:26:51.275Z,51789.21
2019-03-30T14:30:00.816Z,51809.91
2019-03-30T14:33:10.444Z,51819.77
2019-03-30T14:36:19.903Z,51813.85
2019-03-30T14:39:29.333Z,51798.08
2019-03-30T14:42:49.035Z,51797.10
2019-03-30T14:45:58.497Z,51770.48
2019-03-30T14:49:07.822Z,51836.52
2019-03-30T14:52:27.617Z,51773.44
2019-03-30T14:55:39.518Z,51797.10
2019-03-30T14:58:48.098Z,51829.62
2019-03-30T15:02:07.787Z,51795.13
2019-03-30T15:05:17.456Z,51797.10
2019-03-30T15:08:25.355Z,51767.53
2019-03-30T15:11:37.901Z,51808.92
2019-03-30T15:14:45.861Z,51778.37
2019-03-30T15:18:05.545Z,51776.40
2019-03-30T15:21:14.980Z,51784.29
2019-03-30T15:24:24.594Z,51814.84
2019-03-30T15:27:44.105Z,51761.61
2019-03-30T15:30:53.611Z,51799.07
2019-03-30T15:34:02.995Z,51793.15
2019-03-30T15:37:22.702Z,51798.08
2019-03-30T15:40:32.171Z,51817.80
2019-03-30T15:43:41.676Z,51811.88
2019-03-30T15:46:51.136Z,51819.77
2019-03-30T15:50:00.464Z,51808.92
2019-03-30T15:53:09.896Z,51796.11
2019-03-30T15:56:19.251Z,51826.66
2019-03-30T15:59:28.604Z,51790.20
2019-03-30T16:02:49.166Z,51794.14
2019-03-30T16:05:58.739Z,51816.81
2019-03-30T16:09:18.241Z,51795.13
2019-03-30T16:12:27.813Z,51747.82
2019-03-30T16:15:38.542Z,51784.29
2019-03-30T16:18:58.482Z,51794.14
2019-03-30T16:22:07.923Z,51796.11
2019-03-30T16:25:17.393Z,51780.34
2019-03-30T16:28:26.876Z,51797.10
2019-03-30T16:31:36.299Z,51778.37
2019-03-30T16:34:45.776Z,51770.48
2019-03-30T16:37:55.241Z,51806.95
2019-03-30T16:41:04.786Z,51781.33
2019-03-30T16:44:14.251Z,51796.11
2019-03-30T16:47:23.688Z,51806.95
2019-03-30T16:50:43.427Z,51812.87
2019-03-30T16:53:52.933Z,51789.21
2019-03-30T16:57:02.280Z,51803.01
2019-03-30T17:00:21.993Z,51748.80
2019-03-30T17:03:31.417Z,51780.34
2019-03-30T17:06:40.838Z,51805.96
2019-03-30T17:10:00.486Z,51754.71
2019-03-30T17:13:09.945Z,51801.04
2019-03-30T17:16:19.406Z,51793.15
2019-03-30T17:19:39.029Z,51770.48
2019-03-30T17:22:48.358Z,51778.37
2019-03-30T17:25:57.771Z,51794.14
2019-03-30T17:29:07.452Z,51792.17
2019-03-30T17:32:16.786Z,51779.36
2019-03-30T17:35:27.193Z,51805.96
2019-03-30T17:38:36.543Z,51825.68
2019-03-30T17:41:45.997Z,51804.00
2019-03-30T17:44:58.325Z,51816.81
2019-03-30T17:48:07.664Z,51752.75
2019-03-30T17:51:27.807Z,51806.95
2019-03-30T17:54:39.707Z,51788.23
2019-03-30T17:58:12.182Z,51797.10
2019-03-30T18:01:15.344Z,51805.96
2019-03-30T18:04:21.798Z,51811.88
2019-03-30T18:07:31.514Z,51784.29
2019-03-30T18:10:40.941Z,51823.71
2019-03-30T18:13:51.904Z,51844.41
2019-03-30T18:17:11.549Z,51782.31
2019-03-30T18:20:21.012Z,51817.80
2019-03-30T18:23:30.442Z,51793.15
2019-03-30T18:26:50.116Z,51827.65
2019-03-30T18:29:59.541Z,51813.85
2019-03-30T18:33:09.218Z,51798.08
2019-03-30T18:36:19.958Z,51796.11
2019-03-30T18:39:29.636Z,51808.92
2019-03-30T18:42:39.032Z,51790.20
2019-03-30T18:45:48.377Z,51784.29
2019-03-30T18:48:57.745Z,51811.88
2019-03-30T18:52:18.042Z,51800.05
2019-03-30T18:55:27.420Z,51787.24
2019-03-30T18:58:47.249Z,51786.25
2019-03-30T19:01:56.608Z,51801.04
2019-03-30T19:05:06.202Z,51827.65
2019-03-30T19:08:25.793Z,51788.23
2019-03-30T19:11:35.217Z,51811.88
2019-03-30T19:14:44.658Z,51796.11
2019-03-30T19:18:04.415Z,51812.87
2019-03-30T19:21:13.855Z,51790.20
2019-03-30T19:24:23.389Z,51820.75
2019-03-30T19:27:32.880Z,51837.51
2019-03-30T19:30:42.725Z,51782.31
2019-03-30T19:33:52.275Z,51797.10
2019-03-30T19:37:01.799Z,51823.71
2019-03-30T19:40:11.437Z,51774.43
2019-03-30T19:43:20.801Z,51813.85
2019-03-30T19:46:40.510Z,51755.70
2019-03-30T19:49:49.879Z,51815.82
2019-03-30T19:52:59.237Z,51792.17
2019-03-30T19:56:08.605Z,51815.82
2019-03-30T19:59:17.977Z,51811.88
2019-03-30T20:02:27.314Z,51788.23
2019-03-30T20:05:47.125Z,51774.43
2019-03-30T20:08:56.487Z,51793.15
2019-03-30T20:12:05.928Z,51821.74
2019-03-30T20:15:25.698Z,51765.56
2019-03-30T20:18:35.164Z,51806.95
2019-03-30T20:21:44.495Z,51786.25
2019-03-30T20:25:04.768Z,51778.37
2019-03-30T20:28:14.233Z,51768.52
2019-03-30T20:31:23.577Z,51818.78
2019-03-30T20:34:32.947Z,51805.96
2019-03-30T20:37:42.291Z,51814.84
2019-03-30T20:41:02.040Z,51791.18
2019-03-30T20:44:12.581Z,51790.20
2019-03-30T20:47:21.925Z,51786.25
2019-03-30T20:50:31.388Z,51788.23
2019-03-30T20:53:51.211Z,51792.17
2019-03-30T20:57:00.185Z,51797.10
2019-03-30T21:00:10.683Z,51794.14
2019-03-30T21:03:20.036Z,51776.40
2019-03-30T21:06:29.393Z,51785.27
2019-03-30T21:09:38.743Z,51823.71
2019-03-30T21:12:48.087Z,51813.85
2019-03-30T21:15:57.467Z,51801.04
2019-03-30T21:19:06.811Z,51807.94
2019-03-30T21:22:16.172Z,51822.72
2019-03-30T21:25:36.023Z,51787.24
2019-03-30T21:28:45.397Z,51838.49
2019-03-30T21:31:54.928Z,51807.94
2019-03-30T21:35:14.604Z,51785.27
2019-03-30T21:38:23.939Z,51804.98
2019-03-30T21:41:33.284Z,51804.98
2019-03-30T21:44:42.634Z,51787.24
2019-03-30T21:47:52.686Z,51810.89
2019-03-30T21:51:12.303Z,51810.89
2019-03-30T21:54:24.633Z,51804.00
2019-03-30T21:57:34.654Z,51795.13
2019-03-30T22:00:44.205Z,51833.57
2019-03-30T22:03:53.602Z,51804.00
2019-03-30T22:07:13.464Z,51822.72
2019-03-30T22:10:30.060Z,51788.23
2019-03-30T22:13:39.548Z,51794.14
2019-03-30T22:16:50.365Z,51801.04
2019-03-30T22:19:59.698Z,51798.08
2019-03-30T22:23:09.052Z,51826.66
2019-03-30T22:26:18.383Z,51815.82
2019-03-30T22:29:27.777Z,51804.98
2019-03-30T22:32:37.245Z,51802.02
2019-03-30T22:35:46.594Z,51789.21
2019-03-30T22:39:12.328Z,51807.94
2019-03-30T22:42:21.812Z,51811.88
2019-03-30T22:45:31.148Z,51820.75
2019-03-30T22:48:50.895Z,51845.39
2019-03-30T22:52:00.339Z,51802.02
2019-03-30T22:55:09.769Z,51780.34
2019-03-30T22:58:29.428Z,51828.64
2019-03-30T23:01:38.882Z,51811.88
2019-03-30T23:04:48.340Z,51847.36
2019-03-30T23:08:07.976Z,51757.67
2019-03-30T23:11:17.431Z,51809.91
2019-03-30T23:14:27.778Z,51813.85
2019-03-30T23:17:37.255Z,51827.65
2019-03-30T23:20:56.936Z,51820.75
2019-03-30T23:24:06.416Z,51804.00
2019-03-30T23:27:15.760Z,51836.52
2019-03-30T23:30:36.458Z,51831.59
2019-03-30T23:33:45.854Z,51824.70
2019-03-30T23:36:56.008Z,51839.48
2019-03-30T23:40:16.107Z,51830.61
2019-03-30T23:43:25.527Z,51815.82
2019-03-30T23:46:34.875Z,51808.92
2019-03-30T23:49:44.223Z,51847.36
2019-03-30T23:52:53.545Z,51800.05
2019-03-30T23:56:02.903Z,51830.61
2019-03-30T23:59:12.248Z,51816.81
